Time;durP1;ratioP1;P1;durP2;ratioP2;P2;SDS_P1;SDS_P2;PMS_P1;PMS_P2;Temp;Humidity;BMP_temperature;BMP_pressure;BME280_temperature;BME280_humidity;BME280_pressure;Samples;Min_cycle;Max_cycle;Signal;HPM_P1;HPM_P2
2021/05/23 00:01:34;;;;;;;5.20;4.30;;;;;;;;;;5113031;28;20024;-77
2021/05/23 00:04:00;;;;;;;5.15;4.03;;;;;;;;;;5113198;28;20039;-81
2021/05/23 00:06:26;;;;;;;4.20;3.80;;;;;;;;;;5113124;28;20035;-80
2021/05/23 00:08:55;;;;;;;6.75;5.95;;;;;;;;;;5112969;28;20058;-81
2021/05/23 00:11:21;;;;;;;46.35;38.35;;;;;;;;;;5112968;28;20023;-80
2021/05/23 00:13:48;;;;;;;13.40;10.82;;;;;;;;;;5112872;28;20035;-81
2021/05/23 00:16:22;;;;;;;17.10;14.52;;;;;;;;;;5112953;28;20069;-80
2021/05/23 00:18:50;;;;;;;7.78;6.47;;;;;;;;;;5112744;28;20028;-78
2021/05/23 00:21:17;;;;;;;6.28;4.13;;;;;;;;;;5112940;28;20479;-80
2021/05/23 00:23:44;;;;;;;6.55;4.30;;;;;;;;;;5112788;28;20023;-80
2021/05/23 00:26:10;;;;;;;5.22;4.15;;;;;;;;;;5112792;28;20028;-80
2021/05/23 00:28:37;;;;;;;5.88;4.20;;;;;;;;;;5112580;28;20030;-78
2021/05/23 00:31:04;;;;;;;4.72;4.22;;;;;;;;;;5113012;28;20081;-79
2021/05/23 00:33:30;;;;;;;4.25;3.85;;;;;;;;;;5112624;28;20055;-76
2021/05/23 00:35:56;;;;;;;4.45;3.85;;;;;;;;;;5112646;28;20051;-79
2021/05/23 00:38:22;;;;;;;4.72;4.15;;;;;;;;;;5112640;28;20039;-81
2021/05/23 00:40:49;;;;;;;5.97;3.63;;;;;;;;;;5112372;28;20023;-78
2021/05/23 00:43:17;;;;;;;4.30;3.90;;;;;;;;;;5112480;28;20028;-80
2021/05/23 00:45:45;;;;;;;3.88;3.58;;;;;;;;;;5112426;28;20030;-80
2021/05/23 00:48:12;;;;;;;4.22;3.70;;;;;;;;;;5112568;28;20024;-80
2021/05/23 00:50:38;;;;;;;4.22;3.83;;;;;;;;;;5112414;28;20023;-81
2021/05/23 00:53:05;;;;;;;3.78;3.38;;;;;;;;;;5112577;28;20040;-80
2021/05/23 00:55:32;;;;;;;3.42;3.13;;;;;;;;;;5112645;28;20070;-80
2021/05/23 00:57:58;;;;;;;5.97;4.32;;;;;;;;;;5112665;28;20096;-80
2021/05/23 01:00:31;;;;;;;4.50;4.05;;;;;;;;;;5112470;28;20055;-79
2021/05/23 01:02:59;;;;;;;4.38;3.90;;;;;;;;;;5112650;28;20035;-80
2021/05/23 01:05:25;;;;;;;4.65;4.25;;;;;;;;;;5112331;28;20466;-79
2021/05/23 01:07:51;;;;;;;5.45;4.38;;;;;;;;;;5112428;28;20028;-81
2021/05/23 01:10:19;;;;;;;4.55;4.15;;;;;;;;;;5112292;28;20493;-81
2021/05/23 01:13:03;;;;;;;4.72;4.15;;;;;;;;;;5112242;28;20032;-82
2021/05/23 01:15:29;;;;;;;;;;;;;;;;;;5112497;28;20069;-84
2021/05/23 01:17:58;;;;;;;6.07;4.30;;;;;;;;;;5112383;28;19959;-76
2021/05/23 01:20:43;;;;;;;5.35;3.88;;;;;;;;;;5111984;28;20028;-79
2021/05/23 01:23:38;;;;;;;4.60;4.20;;;;;;;;;;5112093;28;20028;-80
2021/05/23 01:26:06;;;;;;;;;;;;;;;;;;5091090;28;20071;-80
2021/05/23 01:28:34;;;;;;;5.03;4.18;;;;;;;;;;5112111;28;19907;-79
2021/05/23 01:31:01;;;;;;;5.03;3.95;;;;;;;;;;5114698;28;20098;-79
2021/05/23 01:33:27;;;;;;;4.43;3.97;;;;;;;;;;5115830;28;20418;-81
2021/05/23 01:35:58;;;;;;;4.07;3.72;;;;;;;;;;5115947;28;20038;-80
2021/05/23 01:38:25;;;;;;;4.55;4.10;;;;;;;;;;5115838;28;20035;-82
2021/05/23 01:40:54;;;;;;;6.20;4.15;;;;;;;;;;5115787;28;20446;-80
2021/05/23 01:43:20;;;;;;;5.70;3.63;;;;;;;;;;5097472;28;20027;-76
2021/05/23 01:45:47;;;;;;;4.13;3.72;;;;;;;;;;5115655;28;20055;-81
2021/05/23 01:48:13;;;;;;;5.30;3.92;;;;;;;;;;5115852;28;20031;-78
2021/05/23 01:50:39;;;;;;;4.18;3.78;;;;;;;;;;5115450;28;20115;-79
2021/05/23 01:53:06;;;;;;;5.30;4.10;;;;;;;;;;5115754;28;20425;-82
2021/05/23 01:55:33;;;;;;;4.40;3.83;;;;;;;;;;5115617;28;20046;-78
2021/05/23 01:57:59;;;;;;;3.90;3.60;;;;;;;;;;5115560;28;20040;-79
2021/05/23 02:00:26;;;;;;;4.38;3.70;;;;;;;;;;5115649;28;20059;-79
2021/05/23 02:02:53;;;;;;;3.95;3.58;;;;;;;;;;5115506;28;20028;-77
2021/05/23 02:05:19;;;;;;;7.25;4.28;;;;;;;;;;5115401;28;20474;-78
2021/05/23 02:07:46;;;;;;;4.05;3.50;;;;;;;;;;5115263;28;20020;-80
2021/05/23 02:10:14;;;;;;;4.15;3.58;;;;;;;;;;5097183;28;20035;-79
2021/05/23 02:12:41;;;;;;;5.53;3.97;;;;;;;;;;5115181;28;20038;-78
2021/05/23 02:15:09;;;;;;;4.60;4.20;;;;;;;;;;5115293;28;20027;-76
2021/05/23 02:17:38;;;;;;;5.07;3.40;;;;;;;;;;5115065;28;20102;-78
2021/05/23 02:20:08;;;;;;;4.70;4.30;;;;;;;;;;5115311;28;20116;-79
2021/05/23 02:22:55;;;;;;;4.72;4.20;;;;;;;;;;5114980;28;20043;-77
2021/05/23 02:25:22;;;;;;;3.85;3.55;;;;;;;;;;5114943;28;20144;-79
2021/05/23 02:27:50;;;;;;;4.05;3.50;;;;;;;;;;5115223;28;20473;-77
2021/05/23 02:30:20;;;;;;;5.25;4.13;;;;;;;;;;5096625;28;20024;-77
2021/05/23 02:32:47;;;;;;;4.63;3.60;;;;;;;;;;5114812;28;20024;-79
2021/05/23 02:35:13;;;;;;;5.07;3.72;;;;;;;;;;5114819;28;20035;-80
2021/05/23 02:37:39;;;;;;;4.88;4.00;;;;;;;;;;5114611;28;20034;-81
2021/05/23 02:40:07;;;;;;;5.03;3.67;;;;;;;;;;5114852;28;20428;-79
2021/05/23 02:42:34;;;;;;;5.35;4.15;;;;;;;;;;5114407;28;20492;-79
2021/05/23 02:45:00;;;;;;;4.43;4.03;;;;;;;;;;5114822;28;20424;-79
2021/05/23 02:47:26;;;;;;;7.15;4.32;;;;;;;;;;5114445;28;20036;-80
2021/05/23 02:49:52;;;;;;;4.57;3.97;;;;;;;;;;5114577;28;20102;-80
2021/05/23 02:52:18;;;;;;;5.15;4.65;;;;;;;;;;5114466;28;20030;-82
2021/05/23 02:54:45;;;;;;;7.68;5.13;;;;;;;;;;5114574;28;20102;-82
2021/05/23 02:57:11;;;;;;;7.30;4.60;;;;;;;;;;5114521;28;20417;-79
2021/05/23 02:59:37;;;;;;;7.13;4.43;;;;;;;;;;5114246;28;20097;-80
2021/05/23 03:02:04;;;;;;;5.55;4.00;;;;;;;;;;5114461;28;20024;-82
2021/05/23 03:04:30;;;;;;;4.63;4.22;;;;;;;;;;5114041;28;20470;-77
2021/05/23 03:06:56;;;;;;;4.60;4.10;;;;;;;;;;5114341;28;20036;-77
2021/05/23 03:09:23;;;;;;;5.50;4.57;;;;;;;;;;5114123;28;20031;-79
2021/05/23 03:11:49;;;;;;;5.10;4.60;;;;;;;;;;5114258;28;20035;-82
2021/05/23 03:14:15;;;;;;;4.65;4.15;;;;;;;;;;5114118;28;20050;-80
2021/05/23 03:16:41;;;;;;;4.93;4.03;;;;;;;;;;5095473;28;20066;-80
2021/05/23 03:19:07;;;;;;;5.25;4.68;;;;;;;;;;5114011;28;20027;-83
2021/05/23 03:21:34;;;;;;;4.65;4.25;;;;;;;;;;5113795;28;20031;-80
2021/05/23 03:24:00;;;;;;;6.70;4.43;;;;;;;;;;5113885;28;20031;-82
2021/05/23 03:26:26;;;;;;;6.65;4.05;;;;;;;;;;5113724;28;20024;-81
2021/05/23 03:28:52;;;;;;;4.10;3.63;;;;;;;;;;5113835;28;20495;-82
2021/05/23 03:31:18;;;;;;;4.63;4.22;;;;;;;;;;5113961;28;20423;-77
2021/05/23 03:33:44;;;;;;;4.30;3.90;;;;;;;;;;5113481;28;20071;-81
2021/05/23 03:36:10;;;;;;;5.63;4.50;;;;;;;;;;5113832;28;20035;-78
2021/05/23 03:38:36;;;;;;;4.55;4.15;;;;;;;;;;5113276;28;20118;-79
2021/05/23 03:41:04;;;;;;;6.07;3.78;;;;;;;;;;5113729;28;20078;-78
2021/05/23 03:43:30;;;;;;;4.43;3.70;;;;;;;;;;5113409;28;20035;-81
2021/05/23 03:45:56;;;;;;;5.03;3.58;;;;;;;;;;5113505;28;20023;-80
2021/05/23 03:48:22;;;;;;;4.43;3.83;;;;;;;;;;5113431;28;20367;-78
2021/05/23 03:50:48;;;;;;;4.57;4.05;;;;;;;;;;5113209;28;20019;-80
2021/05/23 03:53:14;;;;;;;4.78;3.65;;;;;;;;;;5113017;28;20102;-79
2021/05/23 03:55:40;;;;;;;5.18;4.05;;;;;;;;;;5113212;28;20036;-79
2021/05/23 03:58:07;;;;;;;6.03;3.72;;;;;;;;;;5113247;28;20520;-77
2021/05/23 04:00:35;;;;;;;5.97;4.32;;;;;;;;;;5113313;28;20111;-80
2021/05/23 04:03:01;;;;;;;4.30;3.67;;;;;;;;;;5113190;28;20032;-77
2021/05/23 04:05:28;;;;;;;6.30;3.90;;;;;;;;;;5113438;28;20023;-78
2021/05/23 04:07:55;;;;;;;4.40;4.00;;;;;;;;;;5113112;28;20069;-79
2021/05/23 04:10:25;;;;;;;5.55;4.10;;;;;;;;;;5113308;28;20583;-80
2021/05/23 04:12:52;;;;;;;4.85;4.32;;;;;;;;;;5112873;28;20051;-81
2021/05/23 04:15:19;;;;;;;4.78;3.53;;;;;;;;;;5113128;28;20034;-81
2021/05/23 04:17:45;;;;;;;4.65;4.20;;;;;;;;;;5112734;28;20056;-82
2021/05/23 04:20:13;;;;;;;5.88;4.10;;;;;;;;;;5113037;28;20073;-76
2021/05/23 04:22:40;;;;;;;4.05;3.70;;;;;;;;;;5112718;28;20028;-79
2021/05/23 04:25:08;;;;;;;4.10;3.70;;;;;;;;;;5113047;28;20034;-82
2021/05/23 04:27:34;;;;;;;7.15;4.30;;;;;;;;;;5094460;28;20027;-81
2021/05/23 04:30:01;;;;;;;5.00;4.22;;;;;;;;;;5112845;28;20054;-78
2021/05/23 04:32:27;;;;;;;6.10;3.80;;;;;;;;;;5113011;28;20103;-82
2021/05/23 04:34:53;;;;;;;4.93;3.55;;;;;;;;;;5112378;28;20586;-80
2021/05/23 04:37:19;;;;;;;5.35;4.07;;;;;;;;;;5112984;28;20047;-78
2021/05/23 04:39:46;;;;;;;4.72;3.83;;;;;;;;;;5112668;28;20395;-78
2021/05/23 04:42:12;;;;;;;4.32;3.90;;;;;;;;;;5113083;28;20027;-77
2021/05/23 04:44:38;;;;;;;4.10;3.70;;;;;;;;;;5112717;28;20024;-80
2021/05/23 04:47:04;;;;;;;8.30;4.63;;;;;;;;;;5112769;28;20020;-78
2021/05/23 04:49:30;;;;;;;6.25;4.40;;;;;;;;;;5112907;28;20030;-78
2021/05/23 04:51:56;;;;;;;7.40;3.83;;;;;;;;;;5112590;28;20027;-81
2021/05/23 04:54:23;;;;;;;5.43;3.95;;;;;;;;;;5112684;28;20830;-81
2021/05/23 04:56:49;;;;;;;5.25;4.50;;;;;;;;;;5112437;28;20043;-77
2021/05/23 04:59:15;;;;;;;5.18;4.68;;;;;;;;;;5112598;28;20432;-75
2021/05/23 05:01:42;;;;;;;5.25;4.45;;;;;;;;;;5112688;28;20031;-78
2021/05/23 05:04:08;;;;;;;4.10;3.70;;;;;;;;;;5112467;28;20102;-80
2021/05/23 05:06:34;;;;;;;5.22;4.22;;;;;;;;;;5115934;28;20020;-78
2021/05/23 05:09:00;;;;;;;3.90;3.60;;;;;;;;;;5116657;28;20383;-75
2021/05/23 05:11:26;;;;;;;7.95;6.00;;;;;;;;;;5116337;28;20107;-81
2021/05/23 05:13:52;;;;;;;17.05;14.52;;;;;;;;;;5116382;28;20060;-79
2021/05/23 05:16:18;;;;;;;4.63;4.22;;;;;;;;;;5116304;28;20047;-75
2021/05/23 05:18:44;;;;;;;5.05;3.95;;;;;;;;;;5116105;28;20034;-79
2021/05/23 05:21:10;;;;;;;5.05;3.60;;;;;;;;;;5115985;28;20443;-82
2021/05/23 05:23:36;;;;;;;4.32;3.92;;;;;;;;;;5115996;28;20035;-80
2021/05/23 05:26:03;;;;;;;3.92;3.63;;;;;;;;;;5116023;28;20360;-79
2021/05/23 05:28:29;;;;;;;5.85;3.78;;;;;;;;;;5116223;28;20028;-78
2021/05/23 05:30:55;;;;;;;6.80;3.63;;;;;;;;;;5115756;28;20028;-75
2021/05/23 05:33:21;;;;;;;4.85;4.05;;;;;;;;;;5115728;28;20407;-79
2021/05/23 05:35:48;;;;;;;5.00;4.22;;;;;;;;;;5097695;28;20467;-79
2021/05/23 05:38:14;;;;;;;4.63;3.75;;;;;;;;;;5115996;28;20032;-78
2021/05/23 05:40:40;;;;;;;5.15;4.25;;;;;;;;;;5115804;28;20020;-75
2021/05/23 05:43:06;;;;;;;4.90;3.90;;;;;;;;;;5115783;28;20035;-79
2021/05/23 05:45:32;;;;;;;6.05;5.00;;;;;;;;;;5116087;28;20023;-80
2021/05/23 05:47:58;;;;;;;4.80;4.32;;;;;;;;;;5116131;28;20435;-77
2021/05/23 05:50:25;;;;;;;6.63;5.10;;;;;;;;;;5115551;28;20462;-80
2021/05/23 05:52:51;;;;;;;7.55;5.40;;;;;;;;;;5115775;28;20020;-78
2021/05/23 05:55:17;;;;;;;6.20;5.00;;;;;;;;;;5115572;28;20088;-78
2021/05/23 05:57:43;;;;;;;7.65;5.75;;;;;;;;;;5115885;28;20432;-78
2021/05/23 06:00:09;;;;;;;8.50;6.13;;;;;;;;;;5115508;28;20020;-78
2021/05/23 06:02:35;;;;;;;6.35;5.00;;;;;;;;;;5115656;28;20145;-80
2021/05/23 06:05:01;;;;;;;7.30;5.50;;;;;;;;;;5115552;28;20024;-75
2021/05/23 06:07:27;;;;;;;8.23;7.10;;;;;;;;;;5115174;28;20032;-78
2021/05/23 06:09:54;;;;;;;6.25;3.92;;;;;;;;;;5115215;28;20111;-79
2021/05/23 06:12:20;;;;;;;5.10;4.60;;;;;;;;;;5115240;28;20028;-78
2021/05/23 06:14:46;;;;;;;4.95;3.95;;;;;;;;;;5096793;28;20500;-77
2021/05/23 06:17:12;;;;;;;6.57;3.83;;;;;;;;;;5114741;28;20042;-78
2021/05/23 06:19:38;;;;;;;6.63;4.05;;;;;;;;;;5114383;28;20050;-76
2021/05/23 06:22:05;;;;;;;13.88;5.78;;;;;;;;;;5114862;28;20031;-77
2021/05/23 06:24:31;;;;;;;6.78;4.47;;;;;;;;;;5115060;28;20027;-75
2021/05/23 06:26:57;;;;;;;5.85;4.10;;;;;;;;;;5115139;28;20111;-77
2021/05/23 06:29:23;;;;;;;4.30;3.33;;;;;;;;;;5114808;28;20019;-75
2021/05/23 06:31:49;;;;;;;9.07;4.53;;;;;;;;;;5114943;28;20032;-75
2021/05/23 06:34:15;;;;;;;6.15;4.55;;;;;;;;;;5114720;28;20050;-76
2021/05/23 06:36:41;;;;;;;7.00;4.63;;;;;;;;;;5114603;28;20055;-77
2021/05/23 06:39:08;;;;;;;8.25;5.68;;;;;;;;;;5114887;28;20028;-78
2021/05/23 06:41:35;;;;;;;6.60;5.15;;;;;;;;;;5114752;28;20393;-78
2021/05/23 06:44:01;;;;;;;5.20;4.25;;;;;;;;;;5114881;28;20055;-76
2021/05/23 06:46:27;;;;;;;5.32;4.45;;;;;;;;;;5114470;28;20533;-76
2021/05/23 06:48:53;;;;;;;5.68;4.35;;;;;;;;;;5114614;28;20032;-78
2021/05/23 06:51:20;;;;;;;5.43;4.35;;;;;;;;;;5113378;28;20081;-77
2021/05/23 06:53:47;;;;;;;6.55;3.90;;;;;;;;;;5114162;28;20144;-75
2021/05/23 06:56:14;;;;;;;5.07;3.90;;;;;;;;;;5114707;28;20054;-80
2021/05/23 06:58:41;;;;;;;4.97;3.15;;;;;;;;;;5113949;28;20487;-80
2021/05/23 07:01:08;;;;;;;4.70;4.28;;;;;;;;;;5114483;28;20023;-76
2021/05/23 07:03:35;;;;;;;5.18;3.80;;;;;;;;;;5078967;28;20100;-77
2021/05/23 07:06:01;;;;;;;5.22;3.80;;;;;;;;;;5114251;28;20027;-77
2021/05/23 07:08:27;;;;;;;5.28;3.40;;;;;;;;;;5114210;28;20019;-75
2021/05/23 07:10:53;;;;;;;3.80;3.20;;;;;;;;;;5114129;28;20036;-77
2021/05/23 07:13:22;;;;;;;3.17;2.88;;;;;;;;;;5114440;28;20039;-75
2021/05/23 07:15:48;;;;;;;4.78;3.03;;;;;;;;;;5113962;28;20528;-79
2021/05/23 07:18:15;;;;;;;4.13;2.67;;;;;;;;;;5125015;27;20535;-80
2021/05/23 07:20:41;;;;;;;5.05;2.95;;;;;;;;;;5134190;27;20131;-77
2021/05/23 07:23:07;;;;;;;3.42;2.40;;;;;;;;;;5134500;27;20469;-76
2021/05/23 07:25:34;;;;;;;2.70;2.25;;;;;;;;;;5134139;27;20030;-77
2021/05/23 07:28:00;;;;;;;3.22;2.58;;;;;;;;;;5133616;27;20023;-77
2021/05/23 07:30:26;;;;;;;2.88;2.35;;;;;;;;;;5134434;27;20385;-78
2021/05/23 07:32:52;;;;;;;2.92;2.20;;;;;;;;;;5133890;27;20031;-79
2021/05/23 07:35:19;;;;;;;2.63;2.10;;;;;;;;;;5134407;27;20546;-78
2021/05/23 07:37:45;;;;;;;3.53;2.60;;;;;;;;;;5134033;27;20027;-79
2021/05/23 07:40:12;;;;;;;2.65;2.20;;;;;;;;;;5132200;27;20168;-79
2021/05/23 07:42:38;;;;;;;3.63;2.35;;;;;;;;;;5111430;27;20028;-77
2021/05/23 07:45:05;;;;;;;2.70;2.28;;;;;;;;;;5113597;28;20055;-78
2021/05/23 07:47:31;;;;;;;4.25;2.47;;;;;;;;;;5113587;28;20493;-78
2021/05/23 07:49:57;;;;;;;4.28;2.70;;;;;;;;;;5094860;28;20141;-79
2021/05/23 07:52:23;;;;;;;3.40;2.13;;;;;;;;;;5113431;28;20095;-79
2021/05/23 07:54:49;;;;;;;3.22;2.65;;;;;;;;;;5113197;28;20027;-78
2021/05/23 07:57:16;;;;;;;3.58;2.90;;;;;;;;;;5113278;28;20035;-79
2021/05/23 07:59:42;;;;;;;3.35;2.40;;;;;;;;;;5111443;28;20061;-76
2021/05/23 08:02:08;;;;;;;2.28;2.08;;;;;;;;;;5100811;28;20028;-78
2021/05/23 08:04:34;;;;;;;2.90;2.00;;;;;;;;;;5092940;28;20441;-80
2021/05/23 08:07:00;;;;;;;2.35;2.00;;;;;;;;;;5092599;28;20027;-78
2021/05/23 08:09:26;;;;;;;2.75;2.05;;;;;;;;;;5092685;28;20471;-76
2021/05/23 08:11:53;;;;;;;4.20;2.22;;;;;;;;;;5092412;28;20090;-78
2021/05/23 08:14:19;;;;;;;4.75;2.63;;;;;;;;;;5092791;28;20043;-75
2021/05/23 08:16:46;;;;;;;3.45;2.30;;;;;;;;;;5092474;28;20031;-76
2021/05/23 08:19:12;;;;;;;2.97;1.73;;;;;;;;;;5092596;28;20040;-76
2021/05/23 08:21:39;;;;;;;2.55;2.35;;;;;;;;;;5092715;28;20028;-78
2021/05/23 08:24:06;;;;;;;5.45;1.90;;;;;;;;;;5092410;28;20110;-77
2021/05/23 08:26:33;;;;;;;8.32;2.22;;;;;;;;;;5092622;28;20047;-78
2021/05/23 08:28:59;;;;;;;3.00;2.17;;;;;;;;;;5092267;28;20020;-75
2021/05/23 08:31:25;;;;;;;4.28;1.98;;;;;;;;;;5074082;28;20485;-80
2021/05/23 08:33:52;;;;;;;18.33;16.50;;;;;;;;;;5092257;28;20410;-78
2021/05/23 08:36:18;;;;;;;7.78;6.25;;;;;;;;;;5092567;28;20031;-76
2021/05/23 08:38:44;;;;;;;3.35;2.00;;;;;;;;;;5093249;28;20035;-80
2021/05/23 08:41:10;;;;;;;2.75;1.38;;;;;;;;;;5098935;28;20033;-80
2021/05/23 08:43:36;;;;;;;5.00;2.58;;;;;;;;;;5099409;28;20467;-79
2021/05/23 08:46:03;;;;;;;4.15;2.17;;;;;;;;;;5098885;28;20028;-77
2021/05/23 08:48:29;;;;;;;2.20;1.60;;;;;;;;;;5099107;28;20536;-80
2021/05/23 08:50:55;;;;;;;2.33;1.60;;;;;;;;;;5098646;28;20471;-79
2021/05/23 08:53:22;;;;;;;2.85;1.70;;;;;;;;;;5100204;28;20031;-78
2021/05/23 08:55:48;;;;;;;5.78;2.17;;;;;;;;;;5116584;27;20036;-78
2021/05/23 09:00:59;;;;;;;2.40;1.23;;;;;;;;;;5119136;28;20039;-79
2021/05/23 09:03:25;;;;;;;2.85;1.40;;;;;;;;;;5119300;28;20035;-77
2021/05/23 09:05:57;;;;;;;2.58;1.58;;;;;;;;;;5119129;28;20028;-79
2021/05/23 09:08:26;;;;;;;1.60;1.45;;;;;;;;;;5119271;28;20023;-80
2021/05/23 09:10:53;;;;;;;2.47;1.15;;;;;;;;;;5119159;28;20031;-79
2021/05/23 09:13:36;;;;;;;5.20;2.13;;;;;;;;;;5119407;28;20386;-77
2021/05/23 09:16:04;;;;;;;2.53;1.38;;;;;;;;;;5119231;28;20078;-80
2021/05/23 09:18:48;;;;;;;3.67;1.88;;;;;;;;;;5119104;28;20035;-77
2021/05/23 09:21:14;;;;;;;;;;;;;;;;;;5119611;28;20023;-75
2021/05/23 09:23:47;;;;;;;2.95;1.10;;;;;;;;;;5119124;28;19912;-77
2021/05/23 09:26:24;;;;;;;4.88;1.50;;;;;;;;;;5118808;28;20482;-76
2021/05/23 09:28:51;;;;;;;4.45;1.40;;;;;;;;;;5119277;28;20028;-77
2021/05/23 09:31:19;;;;;;;2.78;1.20;;;;;;;;;;5118814;28;20027;-77
2021/05/23 09:33:46;;;;;;;2.80;1.23;;;;;;;;;;5118959;28;20045;-76
2021/05/23 09:36:12;;;;;;;2.47;1.40;;;;;;;;;;5118714;28;20027;-78
2021/05/23 09:38:50;;;;;;;1.70;1.20;;;;;;;;;;5100522;28;20470;-77
2021/05/23 09:41:43;;;;;;;2.28;1.98;;;;;;;;;;5119002;28;20058;-76
2021/05/23 09:44:13;;;;;;;3.17;1.05;;;;;;;;;;5115121;28;20028;-77
2021/05/23 09:46:59;;;;;;;2.00;1.38;;;;;;;;;;5118882;28;20524;-74
2021/05/23 09:49:26;;;;;;;2.20;1.30;;;;;;;;;;5118601;28;20118;-78
2021/05/23 09:51:58;;;;;;;3.35;1.17;;;;;;;;;;5115661;28;20397;-77
2021/05/23 09:54:26;;;;;;;6.18;1.73;;;;;;;;;;5115430;28;20027;-76
2021/05/23 09:56:52;;;;;;;3.58;1.33;;;;;;;;;;5115609;28;20542;-77
2021/05/23 09:59:22;;;;;;;2.75;2.38;;;;;;;;;;5115411;28;20052;-74
2021/05/23 10:01:49;;;;;;;1.20;1.08;;;;;;;;;;5115599;28;20030;-78
2021/05/23 10:04:22;;;;;;;4.30;1.40;;;;;;;;;;5115287;28;20020;-76
2021/05/23 10:07:06;;;;;;;2.13;0.90;;;;;;;;;;5115498;28;20031;-75
2021/05/23 10:09:33;;;;;;;1.98;1.00;;;;;;;;;;5115355;28;20020;-78
2021/05/23 10:11:59;;;;;;;3.50;1.65;;;;;;;;;;5115056;28;20031;-78
2021/05/23 10:14:29;;;;;;;1.27;1.00;;;;;;;;;;5115292;28;20032;-78
2021/05/23 10:16:55;;;;;;;2.83;1.38;;;;;;;;;;5114852;28;20081;-76
2021/05/23 10:19:23;;;;;;;1.42;1.20;;;;;;;;;;5115125;28;20064;-78
2021/05/23 10:21:50;;;;;;;1.55;0.98;;;;;;;;;;5114795;28;20024;-76
2021/05/23 10:24:34;;;;;;;2.55;1.20;;;;;;;;;;5115020;28;20110;-78
2021/05/23 10:27:08;;;;;;;3.03;1.30;;;;;;;;;;5115198;28;20065;-77
2021/05/23 10:29:34;;;;;;;;;;;;;;;;;;5115180;28;20027;-76
2021/05/23 10:32:10;;;;;;;2.15;1.15;;;;;;;;;;5114775;28;19927;-78
2021/05/23 10:34:38;;;;;;;2.80;1.35;;;;;;;;;;5114442;28;20048;-76
2021/05/23 10:37:04;;;;;;;4.15;1.33;;;;;;;;;;5114756;28;20111;-75
2021/05/23 10:39:57;;;;;;;1.25;0.95;;;;;;;;;;5114492;28;20028;-75
2021/05/23 10:42:26;;;;;;;2.40;1.30;;;;;;;;;;5110768;28;20039;-76
2021/05/23 10:44:54;;;;;;;3.28;1.75;;;;;;;;;;5114478;28;20172;-77
2021/05/23 10:47:39;;;;;;;2.55;1.30;;;;;;;;;;5114373;28;20029;-76
2021/05/23 10:50:07;;;;;;;1.50;1.08;;;;;;;;;;5114315;28;20386;-76
2021/05/23 10:52:34;;;;;;;2.75;1.30;;;;;;;;;;5114352;28;20034;-77
2021/05/23 10:55:18;;;;;;;3.13;1.25;;;;;;;;;;5105988;28;20052;-77
2021/05/23 10:57:44;;;;;;;1.58;0.90;;;;;;;;;;5114051;28;20099;-75
2021/05/23 11:00:31;;;;;;;1.73;0.95;;;;;;;;;;5114300;28;20106;-78
2021/05/23 11:02:58;;;;;;;2.42;1.20;;;;;;;;;;5113180;28;20398;-78
2021/05/23 11:05:24;;;;;;;1.40;1.05;;;;;;;;;;5095355;28;20048;-78
2021/05/23 11:08:11;;;;;;;1.90;1.02;;;;;;;;;;5114206;28;20104;-77
2021/05/23 11:10:42;;;;;;;2.17;0.95;;;;;;;;;;5113829;28;20493;-77
2021/05/23 11:13:12;;;;;;;1.80;1.50;;;;;;;;;;5113742;28;20038;-78
2021/05/23 11:15:41;;;;;;;4.10;1.55;;;;;;;;;;5114023;28;20020;-78
2021/05/23 11:18:08;;;;;;;3.33;0.98;;;;;;;;;;5113454;28;20550;-76
2021/05/23 11:20:34;;;;;;;2.45;1.20;;;;;;;;;;5113996;28;20016;-75
2021/05/23 11:23:03;;;;;;;1.90;1.30;;;;;;;;;;5113703;28;20035;-77
2021/05/23 11:25:30;;;;;;;2.28;0.90;;;;;;;;;;5113895;28;20081;-75
2021/05/23 11:27:57;;;;;;;2.97;1.45;;;;;;;;;;5113442;28;20024;-75
2021/05/23 11:30:25;;;;;;;2.55;1.20;;;;;;;;;;5113516;28;20035;-77
2021/05/23 11:32:58;;;;;;;1.55;0.90;;;;;;;;;;5113225;28;20020;-75
2021/05/23 11:35:25;;;;;;;2.40;1.43;;;;;;;;;;5113434;28;20440;-77
2021/05/23 11:38:10;;;;;;;2.00;0.88;;;;;;;;;;5113273;28;20031;-77
2021/05/23 11:40:37;;;;;;;2.70;0.80;;;;;;;;;;5113293;28;20034;-75
2021/05/23 11:43:10;;;;;;;2.20;1.13;;;;;;;;;;5113553;28;20107;-75
2021/05/23 11:45:36;;;;;;;1.92;0.70;;;;;;;;;;5113245;28;20023;-77
2021/05/23 11:48:06;;;;;;;1.83;0.73;;;;;;;;;;5113444;28;20040;-77
2021/05/23 11:50:33;;;;;;;1.70;1.00;;;;;;;;;;5113068;28;20098;-75
2021/05/23 11:52:59;;;;;;;3.72;1.20;;;;;;;;;;5113244;28;20055;-76
2021/05/23 11:55:30;;;;;;;1.05;0.77;;;;;;;;;;5113026;28;20036;-78
2021/05/23 11:58:15;;;;;;;1.77;0.73;;;;;;;;;;5113106;28;20058;-76
2021/05/23 12:00:41;;;;;;;1.58;1.05;;;;;;;;;;5113441;28;20016;-76
2021/05/23 12:03:07;;;;;;;2.33;1.13;;;;;;;;;;5113229;28;20111;-75
2021/05/23 12:05:40;;;;;;;1.40;1.10;;;;;;;;;;5113058;28;20035;-78
2021/05/23 12:08:16;;;;;;;2.05;0.95;;;;;;;;;;5112797;28;20066;-76
2021/05/23 12:10:43;;;;;;;2.03;0.77;;;;;;;;;;5113039;28;20074;-77
2021/05/23 12:13:09;;;;;;;3.28;1.50;;;;;;;;;;5112693;28;20051;-76
2021/05/23 12:15:35;;;;;;;5.47;2.20;;;;;;;;;;5112721;28;20051;-76
2021/05/23 12:18:01;;;;;;;5.47;2.45;;;;;;;;;;5112717;28;20046;-77
2021/05/23 12:20:27;;;;;;;2.13;1.02;;;;;;;;;;5112736;28;20024;-76
2021/05/23 12:22:54;;;;;;;4.07;1.35;;;;;;;;;;5113117;28;20024;-76
2021/05/23 12:25:21;;;;;;;1.42;1.02;;;;;;;;;;5094622;28;20161;-77
2021/05/23 12:27:52;;;;;;;3.00;0.90;;;;;;;;;;5112954;28;20149;-77
2021/05/23 12:30:28;;;;;;;3.65;1.00;;;;;;;;;;5112476;28;20143;-75
2021/05/23 12:33:02;;;;;;;1.42;1.10;;;;;;;;;;5112587;28;20027;-77
2021/05/23 12:35:30;;;;;;;2.70;0.80;;;;;;;;;;5112694;28;20466;-76
2021/05/23 12:37:56;;;;;;;1.52;0.80;;;;;;;;;;5112406;28;20027;-76
2021/05/23 12:40:24;;;;;;;3.10;1.40;;;;;;;;;;5112488;28;20047;-76
2021/05/23 12:42:50;;;;;;;1.52;0.90;;;;;;;;;;5112416;28;20032;-77
2021/05/23 12:45:16;;;;;;;2.85;1.10;;;;;;;;;;5112551;28;20098;-78
2021/05/23 12:47:50;;;;;;;1.95;1.25;;;;;;;;;;5112606;28;20072;-76
2021/05/23 12:50:27;;;;;;;3.53;1.35;;;;;;;;;;5112474;28;20047;-76
2021/05/23 12:52:53;;;;;;;1.83;0.90;;;;;;;;;;5112023;28;20071;-76
2021/05/23 12:55:20;;;;;;;1.88;1.00;;;;;;;;;;5112431;28;20077;-76
2021/05/23 12:57:50;;;;;;;3.47;0.85;;;;;;;;;;5112255;28;20102;-75
2021/05/23 13:00:16;;;;;;;2.88;0.90;;;;;;;;;;5112411;28;20034;-78
2021/05/23 13:02:42;;;;;;;1.75;1.40;;;;;;;;;;5112269;28;20528;-76
2021/05/23 13:05:08;;;;;;;3.25;1.40;;;;;;;;;;5112620;28;20036;-78
2021/05/23 13:07:38;;;;;;;1.65;0.90;;;;;;;;;;5112199;28;20030;-76
2021/05/23 13:10:14;;;;;;;2.38;0.85;;;;;;;;;;5112582;28;20063;-77
2021/05/23 13:12:41;;;;;;;2.78;0.70;;;;;;;;;;5112003;28;20031;-75
2021/05/23 13:15:08;;;;;;;2.55;0.65;;;;;;;;;;5112521;28;20390;-79
2021/05/23 13:17:39;;;;;;;1.77;0.98;;;;;;;;;;5111951;28;20035;-76
2021/05/23 13:20:06;;;;;;;2.78;0.60;;;;;;;;;;5112389;28;20035;-77
2021/05/23 13:22:33;;;;;;;1.63;0.75;;;;;;;;;;5111948;28;20039;-75
2021/05/23 13:25:02;;;;;;;2.90;1.23;;;;;;;;;;5108169;28;20123;-74
2021/05/23 13:27:28;;;;;;;3.40;1.00;;;;;;;;;;5103347;28;20385;-75
2021/05/23 13:29:55;;;;;;;2.10;1.00;;;;;;;;;;5095592;28;20046;-78
2021/05/23 13:32:21;;;;;;;2.22;0.90;;;;;;;;;;5095712;28;20028;-77
2021/05/23 13:34:47;;;;;;;1.77;0.68;;;;;;;;;;5095303;28;20445;-78
2021/05/23 13:37:15;;;;;;;21.88;2.08;;;;;;;;;;5095500;28;20081;-68
2021/05/23 13:39:41;;;;;;;1.90;0.77;;;;;;;;;;5094907;28;20042;-72
2021/05/23 13:42:07;;;;;;;3.03;0.60;;;;;;;;;;5095288;28;20383;-76
2021/05/23 13:44:33;;;;;;;1.08;0.60;;;;;;;;;;5095222;28;20433;-80
2021/05/23 13:46:59;;;;;;;5.43;0.68;;;;;;;;;;5095360;28;20483;-79
2021/05/23 13:49:26;;;;;;;1.88;0.70;;;;;;;;;;5107448;27;20046;-76
2021/05/23 13:51:52;;;;;;;3.05;0.60;;;;;;;;;;5117675;27;20106;-76
2021/05/23 13:54:18;;;;;;;1.58;0.73;;;;;;;;;;5136299;27;20080;-79
2021/05/23 13:56:44;;;;;;;2.50;0.70;;;;;;;;;;5135691;27;20106;-78
2021/05/23 13:59:10;;;;;;;2.25;0.50;;;;;;;;;;5136314;27;20031;-78
2021/05/23 14:01:45;;;;;;;1.13;0.73;;;;;;;;;;5136046;27;20105;-76
2021/05/23 14:04:11;;;;;;;1.75;1.05;;;;;;;;;;5135959;27;20516;-78
2021/05/23 14:06:38;;;;;;;2.13;0.63;;;;;;;;;;5135797;27;20023;-75
2021/05/23 14:09:04;;;;;;;4.40;1.00;;;;;;;;;;5135959;27;20055;-77
2021/05/23 14:11:30;;;;;;;3.38;1.00;;;;;;;;;;5135917;27;20026;-76
2021/05/23 14:13:56;;;;;;;1.80;0.60;;;;;;;;;;5135915;27;20027;-79
2021/05/23 14:16:22;;;;;;;2.75;0.60;;;;;;;;;;5135969;27;20031;-78
2021/05/23 14:18:48;;;;;;;3.17;0.50;;;;;;;;;;5135474;27;20461;-77
2021/05/23 14:21:14;;;;;;;2.28;0.65;;;;;;;;;;5135811;27;20030;-75
2021/05/23 14:23:41;;;;;;;2.80;0.60;;;;;;;;;;5135336;27;20031;-78
2021/05/23 14:26:07;;;;;;;3.60;0.85;;;;;;;;;;5135712;27;20083;-77
2021/05/23 14:28:33;;;;;;;2.80;0.77;;;;;;;;;;5128335;27;20059;-75
2021/05/23 14:30:59;;;;;;;2.75;0.88;;;;;;;;;;5095923;28;20035;-79
2021/05/23 14:33:26;;;;;;;2.05;0.60;;;;;;;;;;5094331;28;20044;-78
2021/05/23 14:35:52;;;;;;;3.80;0.90;;;;;;;;;;5093905;28;20471;-74
2021/05/23 14:38:19;;;;;;;1.30;0.68;;;;;;;;;;5108100;28;20032;-79
2021/05/23 14:40:45;;;;;;;1.30;0.77;;;;;;;;;;5114431;28;20050;-76
2021/05/23 14:43:12;;;;;;;3.60;1.10;;;;;;;;;;5114883;28;20035;-75
2021/05/23 14:45:38;;;;;;;2.65;1.30;;;;;;;;;;5114497;28;20073;-77
2021/05/23 14:48:05;;;;;;;2.40;1.00;;;;;;;;;;5114587;28;20027;-75
2021/05/23 14:50:32;;;;;;;1.88;0.73;;;;;;;;;;5114805;28;20035;-78